sensor_id;sensor_type;location;lat;lon;timestamp;P1;durP1;ratioP1;P2;durP2;ratioP2
12631;SDS011;6381;45.748;12.106;2022-08-03T00:01:41;3.35;;;2.20;;
12631;SDS011;6381;45.748;12.106;2022-08-03T00:04:11;3.30;;;2.00;;
12631;SDS011;6381;45.748;12.106;2022-08-03T00:06:41;2.58;;;2.10;;
12631;SDS011;6381;45.748;12.106;2022-08-03T00:09:13;2.55;;;2.10;;
12631;SDS011;6381;45.748;12.106;2022-08-03T00:11:42;4.05;;;2.13;;
12631;SDS011;6381;45.748;12.106;2022-08-03T00:14:12;2.85;;;2.00;;
12631;SDS011;6381;45.748;12.106;2022-08-03T00:16:41;2.30;;;2.10;;
12631;SDS011;6381;45.748;12.106;2022-08-03T00:19:11;2.17;;;1.98;;
12631;SDS011;6381;45.748;12.106;2022-08-03T00:21:42;3.70;;;2.10;;
12631;SDS011;6381;45.748;12.106;2022-08-03T00:24:13;2.30;;;2.10;;
12631;SDS011;6381;45.748;12.106;2022-08-03T00:26:43;2.60;;;2.00;;
12631;SDS011;6381;45.748;12.106;2022-08-03T00:29:12;2.33;;;2.13;;
12631;SDS011;6381;45.748;12.106;2022-08-03T00:31:42;2.70;;;2.13;;
12631;SDS011;6381;45.748;12.106;2022-08-03T00:34:18;2.30;;;2.00;;
12631;SDS011;6381;45.748;12.106;2022-08-03T00:37:08;3.28;;;2.10;;
12631;SDS011;6381;45.748;12.106;2022-08-03T00:39:39;2.50;;;1.88;;
12631;SDS011;6381;45.748;12.106;2022-08-03T00:42:11;2.28;;;2.08;;
12631;SDS011;6381;45.748;12.106;2022-08-03T00:44:41;2.47;;;2.10;;
12631;SDS011;6381;45.748;12.106;2022-08-03T00:47:12;3.90;;;2.15;;
12631;SDS011;6381;45.748;12.106;2022-08-03T00:49:42;2.17;;;1.95;;
12631;SDS011;6381;45.748;12.106;2022-08-03T00:52:12;2.40;;;2.08;;
12631;SDS011;6381;45.748;12.106;2022-08-03T00:54:44;2.88;;;2.22;;
12631;SDS011;6381;45.748;12.106;2022-08-03T00:57:14;2.40;;;2.00;;
12631;SDS011;6381;45.748;12.106;2022-08-03T00:59:43;3.03;;;2.10;;
12631;SDS011;6381;45.748;12.106;2022-08-03T01:02:13;3.28;;;1.98;;
12631;SDS011;6381;45.748;12.106;2022-08-03T01:04:43;3.15;;;2.55;;
12631;SDS011;6381;45.748;12.106;2022-08-03T01:07:14;2.78;;;2.20;;
12631;SDS011;6381;45.748;12.106;2022-08-03T01:09:52;2.50;;;2.30;;
12631;SDS011;6381;45.748;12.106;2022-08-03T01:12:31;3.10;;;2.53;;
12631;SDS011;6381;45.748;12.106;2022-08-03T01:15:07;4.25;;;2.40;;
12631;SDS011;6381;45.748;12.106;2022-08-03T01:17:43;4.72;;;2.30;;
12631;SDS011;6381;45.748;12.106;2022-08-03T01:20:18;2.28;;;2.08;;
12631;SDS011;6381;45.748;12.106;2022-08-03T01:23:02;2.47;;;2.28;;
12631;SDS011;6381;45.748;12.106;2022-08-03T01:25:54;3.30;;;2.10;;
12631;SDS011;6381;45.748;12.106;2022-08-03T01:28:40;2.22;;;1.95;;
12631;SDS011;6381;45.748;12.106;2022-08-03T01:31:27;2.50;;;2.30;;
12631;SDS011;6381;45.748;12.106;2022-08-03T01:34:20;2.28;;;2.03;;
12631;SDS011;6381;45.748;12.106;2022-08-03T01:36:53;2.58;;;2.25;;
12631;SDS011;6381;45.748;12.106;2022-08-03T01:39:25;2.10;;;1.90;;
12631;SDS011;6381;45.748;12.106;2022-08-03T01:41:58;3.22;;;2.30;;
12631;SDS011;6381;45.748;12.106;2022-08-03T01:44:33;3.72;;;2.10;;
12631;SDS011;6381;45.748;12.106;2022-08-03T01:47:09;5.32;;;2.30;;
12631;SDS011;6381;45.748;12.106;2022-08-03T01:49:42;3.00;;;2.13;;
12631;SDS011;6381;45.748;12.106;2022-08-03T01:52:13;4.50;;;2.10;;
12631;SDS011;6381;45.748;12.106;2022-08-03T01:54:47;2.20;;;2.00;;
12631;SDS011;6381;45.748;12.106;2022-08-03T01:57:19;2.28;;;2.08;;
12631;SDS011;6381;45.748;12.106;2022-08-03T01:59:50;2.58;;;2.38;;
12631;SDS011;6381;45.748;12.106;2022-08-03T02:02:24;2.80;;;2.33;;
12631;SDS011;6381;45.748;12.106;2022-08-03T02:05:00;4.28;;;2.20;;
12631;SDS011;6381;45.748;12.106;2022-08-03T02:07:38;5.28;;;2.20;;
12631;SDS011;6381;45.748;12.106;2022-08-03T02:10:10;4.10;;;2.08;;
12631;SDS011;6381;45.748;12.106;2022-08-03T02:13:01;2.30;;;2.10;;
12631;SDS011;6381;45.748;12.106;2022-08-03T02:15:32;2.83;;;2.20;;
12631;SDS011;6381;45.748;12.106;2022-08-03T02:18:06;2.60;;;2.40;;
12631;SDS011;6381;45.748;12.106;2022-08-03T02:20:37;2.25;;;2.05;;
12631;SDS011;6381;45.748;12.106;2022-08-03T02:23:09;2.95;;;2.30;;
12631;SDS011;6381;45.748;12.106;2022-08-03T02:25:40;2.92;;;2.40;;
12631;SDS011;6381;45.748;12.106;2022-08-03T02:28:14;2.92;;;2.40;;
12631;SDS011;6381;45.748;12.106;2022-08-03T02:30:54;2.97;;;2.20;;
12631;SDS011;6381;45.748;12.106;2022-08-03T02:33:27;2.60;;;2.08;;
12631;SDS011;6381;45.748;12.106;2022-08-03T02:36:00;3.35;;;2.47;;
12631;SDS011;6381;45.748;12.106;2022-08-03T02:38:31;2.70;;;2.50;;
12631;SDS011;6381;45.748;12.106;2022-08-03T02:41:06;3.10;;;2.28;;
12631;SDS011;6381;45.748;12.106;2022-08-03T02:43:41;2.20;;;2.00;;
12631;SDS011;6381;45.748;12.106;2022-08-03T02:46:33;2.20;;;2.00;;
12631;SDS011;6381;45.748;12.106;2022-08-03T02:49:07;2.38;;;2.17;;
12631;SDS011;6381;45.748;12.106;2022-08-03T02:52:00;2.90;;;2.30;;
12631;SDS011;6381;45.748;12.106;2022-08-03T02:54:38;2.30;;;2.10;;
12631;SDS011;6381;45.748;12.106;2022-08-03T02:57:09;2.20;;;2.00;;
12631;SDS011;6381;45.748;12.106;2022-08-03T02:59:40;2.75;;;2.42;;
12631;SDS011;6381;45.748;12.106;2022-08-03T03:02:11;2.10;;;1.90;;
12631;SDS011;6381;45.748;12.106;2022-08-03T03:04:45;2.33;;;2.13;;
12631;SDS011;6381;45.748;12.106;2022-08-03T03:07:37;2.60;;;1.95;;
12631;SDS011;6381;45.748;12.106;2022-08-03T03:10:18;3.05;;;2.13;;
12631;SDS011;6381;45.748;12.106;2022-08-03T03:12:50;2.20;;;2.00;;
12631;SDS011;6381;45.748;12.106;2022-08-03T03:15:22;2.45;;;2.10;;
12631;SDS011;6381;45.748;12.106;2022-08-03T03:17:54;1.85;;;1.75;;
12631;SDS011;6381;45.748;12.106;2022-08-03T03:20:26;2.10;;;1.88;;
12631;SDS011;6381;45.748;12.106;2022-08-03T03:22:59;3.47;;;2.00;;
12631;SDS011;6381;45.748;12.106;2022-08-03T03:25:32;3.22;;;2.00;;
12631;SDS011;6381;45.748;12.106;2022-08-03T03:28:04;1.90;;;1.80;;
12631;SDS011;6381;45.748;12.106;2022-08-03T03:30:34;3.45;;;2.22;;
12631;SDS011;6381;45.748;12.106;2022-08-03T03:33:04;2.42;;;2.00;;
12631;SDS011;6381;45.748;12.106;2022-08-03T03:35:36;3.05;;;2.28;;
12631;SDS011;6381;45.748;12.106;2022-08-03T03:38:08;2.63;;;2.30;;
12631;SDS011;6381;45.748;12.106;2022-08-03T03:40:38;2.38;;;2.17;;
12631;SDS011;6381;45.748;12.106;2022-08-03T03:43:08;5.07;;;2.35;;
12631;SDS011;6381;45.748;12.106;2022-08-03T03:45:39;2.30;;;2.10;;
12631;SDS011;6381;45.748;12.106;2022-08-03T03:48:09;3.50;;;2.10;;
12631;SDS011;6381;45.748;12.106;2022-08-03T03:50:42;2.28;;;1.98;;
12631;SDS011;6381;45.748;12.106;2022-08-03T03:53:12;2.80;;;2.25;;
12631;SDS011;6381;45.748;12.106;2022-08-03T03:55:42;2.47;;;1.98;;
12631;SDS011;6381;45.748;12.106;2022-08-03T03:58:29;2.30;;;2.08;;
12631;SDS011;6381;45.748;12.106;2022-08-03T04:00:59;2.50;;;2.13;;
12631;SDS011;6381;45.748;12.106;2022-08-03T04:03:29;3.75;;;2.35;;
12631;SDS011;6381;45.748;12.106;2022-08-03T04:06:00;2.83;;;2.13;;
12631;SDS011;6381;45.748;12.106;2022-08-03T04:08:48;2.33;;;2.13;;
12631;SDS011;6381;45.748;12.106;2022-08-03T04:11:42;4.00;;;2.28;;
12631;SDS011;6381;45.748;12.106;2022-08-03T04:14:17;2.75;;;2.08;;
12631;SDS011;6381;45.748;12.106;2022-08-03T04:16:49;2.10;;;1.85;;
12631;SDS011;6381;45.748;12.106;2022-08-03T04:19:23;2.47;;;1.95;;
12631;SDS011;6381;45.748;12.106;2022-08-03T04:21:59;3.45;;;2.50;;
12631;SDS011;6381;45.748;12.106;2022-08-03T04:24:32;2.67;;;1.90;;
12631;SDS011;6381;45.748;12.106;2022-08-03T04:27:06;2.30;;;2.08;;
12631;SDS011;6381;45.748;12.106;2022-08-03T04:29:40;2.97;;;2.17;;
12631;SDS011;6381;45.748;12.106;2022-08-03T04:32:14;2.30;;;2.10;;
12631;SDS011;6381;45.748;12.106;2022-08-03T04:34:46;2.28;;;1.83;;
12631;SDS011;6381;45.748;12.106;2022-08-03T04:37:20;2.60;;;2.13;;
12631;SDS011;6381;45.748;12.106;2022-08-03T04:39:59;2.20;;;2.00;;
12631;SDS011;6381;45.748;12.106;2022-08-03T04:42:32;2.75;;;2.20;;
12631;SDS011;6381;45.748;12.106;2022-08-03T04:45:03;3.47;;;1.95;;
12631;SDS011;6381;45.748;12.106;2022-08-03T04:47:34;2.63;;;2.13;;
12631;SDS011;6381;45.748;12.106;2022-08-03T04:50:05;3.05;;;2.25;;
12631;SDS011;6381;45.748;12.106;2022-08-03T04:52:42;3.78;;;2.10;;
12631;SDS011;6381;45.748;12.106;2022-08-03T04:55:23;2.60;;;2.22;;
12631;SDS011;6381;45.748;12.106;2022-08-03T04:57:54;3.42;;;2.20;;
12631;SDS011;6381;45.748;12.106;2022-08-03T05:00:24;4.70;;;2.15;;
12631;SDS011;6381;45.748;12.106;2022-08-03T05:02:54;2.45;;;2.10;;
12631;SDS011;6381;45.748;12.106;2022-08-03T05:05:24;3.92;;;2.20;;
12631;SDS011;6381;45.748;12.106;2022-08-03T05:08:15;2.33;;;1.88;;
12631;SDS011;6381;45.748;12.106;2022-08-03T05:10:46;2.45;;;2.00;;
12631;SDS011;6381;45.748;12.106;2022-08-03T05:13:16;1.98;;;1.88;;
12631;SDS011;6381;45.748;12.106;2022-08-03T05:15:47;2.85;;;1.95;;
12631;SDS011;6381;45.748;12.106;2022-08-03T05:18:17;4.40;;;2.40;;
12631;SDS011;6381;45.748;12.106;2022-08-03T05:20:47;3.28;;;2.20;;
12631;SDS011;6381;45.748;12.106;2022-08-03T05:23:18;3.53;;;2.50;;
12631;SDS011;6381;45.748;12.106;2022-08-03T05:25:48;2.17;;;1.95;;
12631;SDS011;6381;45.748;12.106;2022-08-03T05:28:18;2.80;;;2.30;;
12631;SDS011;6381;45.748;12.106;2022-08-03T05:30:47;2.53;;;2.30;;
12631;SDS011;6381;45.748;12.106;2022-08-03T05:33:18;2.40;;;2.20;;
12631;SDS011;6381;45.748;12.106;2022-08-03T05:35:48;4.65;;;2.30;;
12631;SDS011;6381;45.748;12.106;2022-08-03T05:38:30;2.53;;;2.05;;
12631;SDS011;6381;45.748;12.106;2022-08-03T05:41:02;2.60;;;2.30;;
12631;SDS011;6381;45.748;12.106;2022-08-03T05:43:49;3.90;;;2.33;;
12631;SDS011;6381;45.748;12.106;2022-08-03T05:46:19;6.43;;;2.65;;
12631;SDS011;6381;45.748;12.106;2022-08-03T05:48:50;6.05;;;2.65;;
12631;SDS011;6381;45.748;12.106;2022-08-03T05:51:20;5.00;;;3.05;;
12631;SDS011;6381;45.748;12.106;2022-08-03T05:53:51;12.50;;;3.35;;
12631;SDS011;6381;45.748;12.106;2022-08-03T05:56:21;8.10;;;2.80;;
12631;SDS011;6381;45.748;12.106;2022-08-03T05:58:51;6.30;;;2.85;;
12631;SDS011;6381;45.748;12.106;2022-08-03T06:01:22;9.60;;;3.17;;
12631;SDS011;6381;45.748;12.106;2022-08-03T06:03:51;8.63;;;3.28;;
12631;SDS011;6381;45.748;12.106;2022-08-03T06:06:24;6.78;;;2.83;;
12631;SDS011;6381;45.748;12.106;2022-08-03T06:08:59;8.90;;;2.70;;
12631;SDS011;6381;45.748;12.106;2022-08-03T06:11:29;4.40;;;2.28;;
12631;SDS011;6381;45.748;12.106;2022-08-03T06:13:59;4.78;;;2.30;;
12631;SDS011;6381;45.748;12.106;2022-08-03T06:16:29;5.40;;;2.42;;
12631;SDS011;6381;45.748;12.106;2022-08-03T06:19:00;3.88;;;2.38;;
12631;SDS011;6381;45.748;12.106;2022-08-03T06:21:30;4.22;;;2.55;;
12631;SDS011;6381;45.748;12.106;2022-08-03T06:24:02;3.25;;;2.40;;
12631;SDS011;6381;45.748;12.106;2022-08-03T06:26:33;2.97;;;2.50;;
12631;SDS011;6381;45.748;12.106;2022-08-03T06:29:06;2.95;;;2.40;;
12631;SDS011;6381;45.748;12.106;2022-08-03T06:31:37;5.15;;;2.72;;
12631;SDS011;6381;45.748;12.106;2022-08-03T06:34:06;3.53;;;2.50;;
12631;SDS011;6381;45.748;12.106;2022-08-03T06:36:56;2.58;;;2.20;;
12631;SDS011;6381;45.748;12.106;2022-08-03T06:39:31;2.58;;;2.00;;
12631;SDS011;6381;45.748;12.106;2022-08-03T06:42:00;2.35;;;2.15;;
12631;SDS011;6381;45.748;12.106;2022-08-03T06:44:32;3.08;;;2.30;;
12631;SDS011;6381;45.748;12.106;2022-08-03T06:47:03;2.42;;;2.22;;
12631;SDS011;6381;45.748;12.106;2022-08-03T06:49:33;3.22;;;2.15;;
12631;SDS011;6381;45.748;12.106;2022-08-03T06:52:03;3.30;;;2.20;;
12631;SDS011;6381;45.748;12.106;2022-08-03T06:54:35;4.40;;;2.00;;
12631;SDS011;6381;45.748;12.106;2022-08-03T06:57:05;4.18;;;2.20;;
12631;SDS011;6381;45.748;12.106;2022-08-03T06:59:37;2.85;;;2.45;;
12631;SDS011;6381;45.748;12.106;2022-08-03T07:02:27;2.45;;;2.05;;
12631;SDS011;6381;45.748;12.106;2022-08-03T07:04:57;3.30;;;2.20;;
12631;SDS011;6381;45.748;12.106;2022-08-03T07:07:29;2.42;;;2.00;;
12631;SDS011;6381;45.748;12.106;2022-08-03T07:10:01;2.42;;;2.20;;
12631;SDS011;6381;45.748;12.106;2022-08-03T07:12:34;5.32;;;2.00;;
12631;SDS011;6381;45.748;12.106;2022-08-03T07:15:22;2.42;;;2.20;;
12631;SDS011;6381;45.748;12.106;2022-08-03T07:18:12;2.60;;;2.20;;
12631;SDS011;6381;45.748;12.106;2022-08-03T07:20:55;5.20;;;2.40;;
12631;SDS011;6381;45.748;12.106;2022-08-03T07:23:27;3.55;;;2.10;;
12631;SDS011;6381;45.748;12.106;2022-08-03T07:25:58;6.25;;;2.50;;
12631;SDS011;6381;45.748;12.106;2022-08-03T07:28:28;5.07;;;2.75;;
12631;SDS011;6381;45.748;12.106;2022-08-03T07:30:58;2.30;;;2.10;;
12631;SDS011;6381;45.748;12.106;2022-08-03T07:33:27;3.42;;;2.40;;
12631;SDS011;6381;45.748;12.106;2022-08-03T07:35:57;2.50;;;2.30;;
12631;SDS011;6381;45.748;12.106;2022-08-03T07:38:27;2.67;;;2.22;;
12631;SDS011;6381;45.748;12.106;2022-08-03T07:40:58;2.80;;;2.50;;
12631;SDS011;6381;45.748;12.106;2022-08-03T07:43:28;2.80;;;2.20;;
12631;SDS011;6381;45.748;12.106;2022-08-03T07:45:58;3.22;;;2.40;;
12631;SDS011;6381;45.748;12.106;2022-08-03T07:48:28;3.47;;;2.53;;
12631;SDS011;6381;45.748;12.106;2022-08-03T07:50:58;4.85;;;2.40;;
12631;SDS011;6381;45.748;12.106;2022-08-03T07:53:30;5.70;;;2.55;;
12631;SDS011;6381;45.748;12.106;2022-08-03T07:56:08;6.80;;;2.65;;
12631;SDS011;6381;45.748;12.106;2022-08-03T07:58:38;4.05;;;2.40;;
12631;SDS011;6381;45.748;12.106;2022-08-03T08:01:08;4.93;;;2.28;;
12631;SDS011;6381;45.748;12.106;2022-08-03T08:03:41;4.63;;;2.40;;
12631;SDS011;6381;45.748;12.106;2022-08-03T08:06:19;3.42;;;2.38;;
12631;SDS011;6381;45.748;12.106;2022-08-03T08:08:49;5.10;;;2.85;;
12631;SDS011;6381;45.748;12.106;2022-08-03T08:11:21;5.95;;;2.40;;
12631;SDS011;6381;45.748;12.106;2022-08-03T08:13:51;3.05;;;2.38;;
12631;SDS011;6381;45.748;12.106;2022-08-03T08:16:21;4.82;;;2.55;;
12631;SDS011;6381;45.748;12.106;2022-08-03T08:18:51;4.82;;;2.00;;
12631;SDS011;6381;45.748;12.106;2022-08-03T08:21:21;4.65;;;2.08;;
12631;SDS011;6381;45.748;12.106;2022-08-03T08:24:13;2.97;;;2.35;;
12631;SDS011;6381;45.748;12.106;2022-08-03T08:26:47;7.72;;;2.60;;
12631;SDS011;6381;45.748;12.106;2022-08-03T08:29:16;2.78;;;2.15;;
12631;SDS011;6381;45.748;12.106;2022-08-03T08:31:49;4.28;;;2.35;;
12631;SDS011;6381;45.748;12.106;2022-08-03T08:34:18;4.07;;;2.47;;
12631;SDS011;6381;45.748;12.106;2022-08-03T08:36:49;3.25;;;2.50;;
12631;SDS011;6381;45.748;12.106;2022-08-03T08:39:18;2.63;;;2.20;;
12631;SDS011;6381;45.748;12.106;2022-08-03T08:41:51;5.78;;;2.50;;
12631;SDS011;6381;45.748;12.106;2022-08-03T08:44:20;3.97;;;2.50;;
12631;SDS011;6381;45.748;12.106;2022-08-03T08:46:50;2.60;;;2.40;;
12631;SDS011;6381;45.748;12.106;2022-08-03T08:49:23;4.72;;;2.20;;
12631;SDS011;6381;45.748;12.106;2022-08-03T08:51:55;4.68;;;2.50;;
12631;SDS011;6381;45.748;12.106;2022-08-03T08:54:27;3.38;;;2.40;;
12631;SDS011;6381;45.748;12.106;2022-08-03T08:57:02;4.45;;;2.30;;
12631;SDS011;6381;45.748;12.106;2022-08-03T08:59:52;3.72;;;2.38;;
12631;SDS011;6381;45.748;12.106;2022-08-03T09:02:22;6.53;;;2.45;;
12631;SDS011;6381;45.748;12.106;2022-08-03T09:04:52;4.38;;;2.30;;
12631;SDS011;6381;45.748;12.106;2022-08-03T09:07:20;8.02;;;2.63;;
12631;SDS011;6381;45.748;12.106;2022-08-03T09:09:49;3.83;;;2.55;;
12631;SDS011;6381;45.748;12.106;2022-08-03T09:12:40;4.45;;;2.47;;
12631;SDS011;6381;45.748;12.106;2022-08-03T09:15:17;2.70;;;2.20;;
12631;SDS011;6381;45.748;12.106;2022-08-03T09:17:48;3.30;;;2.40;;
12631;SDS011;6381;45.748;12.106;2022-08-03T09:20:18;3.70;;;2.30;;
12631;SDS011;6381;45.748;12.106;2022-08-03T09:22:51;2.92;;;2.22;;
12631;SDS011;6381;45.748;12.106;2022-08-03T09:25:25;4.97;;;2.38;;
12631;SDS011;6381;45.748;12.106;2022-08-03T09:28:03;3.92;;;2.50;;
12631;SDS011;6381;45.748;12.106;2022-08-03T09:30:34;5.28;;;2.50;;
12631;SDS011;6381;45.748;12.106;2022-08-03T09:33:04;3.83;;;2.22;;
12631;SDS011;6381;45.748;12.106;2022-08-03T09:35:39;5.43;;;2.60;;
12631;SDS011;6381;45.748;12.106;2022-08-03T09:38:24;5.38;;;2.50;;
12631;SDS011;6381;45.748;12.106;2022-08-03T09:40:53;3.90;;;2.53;;
12631;SDS011;6381;45.748;12.106;2022-08-03T09:43:27;5.63;;;2.50;;
12631;SDS011;6381;45.748;12.106;2022-08-03T09:46:12;3.28;;;2.60;;
12631;SDS011;6381;45.748;12.106;2022-08-03T09:48:40;4.00;;;2.38;;
12631;SDS011;6381;45.748;12.106;2022-08-03T09:51:09;3.85;;;2.70;;
12631;SDS011;6381;45.748;12.106;2022-08-03T09:53:59;3.55;;;2.33;;
12631;SDS011;6381;45.748;12.106;2022-08-03T09:56:40;2.95;;;2.20;;
12631;SDS011;6381;45.748;12.106;2022-08-03T09:59:12;4.82;;;2.50;;
12631;SDS011;6381;45.748;12.106;2022-08-03T10:01:51;3.47;;;2.40;;
12631;SDS011;6381;45.748;12.106;2022-08-03T10:04:20;5.32;;;2.42;;
12631;SDS011;6381;45.748;12.106;2022-08-03T10:09:39;2.15;;;1.85;;
12631;SDS011;6381;45.748;12.106;2022-08-03T10:12:21;3.10;;;2.22;;
12631;SDS011;6381;45.748;12.106;2022-08-03T10:14:52;3.50;;;2.13;;
12631;SDS011;6381;45.748;12.106;2022-08-03T10:17:21;3.22;;;2.35;;
12631;SDS011;6381;45.748;12.106;2022-08-03T10:19:50;3.47;;;2.30;;
12631;SDS011;6381;45.748;12.106;2022-08-03T10:22:20;2.65;;;2.13;;
12631;SDS011;6381;45.748;12.106;2022-08-03T10:24:51;3.03;;;2.35;;
12631;SDS011;6381;45.748;12.106;2022-08-03T10:27:23;3.72;;;2.50;;
12631;SDS011;6381;45.748;12.106;2022-08-03T10:29:55;4.18;;;2.28;;
12631;SDS011;6381;45.748;12.106;2022-08-03T10:32:30;2.50;;;2.30;;
12631;SDS011;6381;45.748;12.106;2022-08-03T10:35:04;2.30;;;2.10;;
12631;SDS011;6381;45.748;12.106;2022-08-03T10:37:48;2.83;;;2.30;;
12631;SDS011;6381;45.748;12.106;2022-08-03T10:40:26;3.10;;;2.22;;
12631;SDS011;6381;45.748;12.106;2022-08-03T10:43:17;2.75;;;2.42;;
12631;SDS011;6381;45.748;12.106;2022-08-03T10:45:49;2.80;;;2.17;;
12631;SDS011;6381;45.748;12.106;2022-08-03T10:48:18;6.47;;;2.30;;
12631;SDS011;6381;45.748;12.106;2022-08-03T10:50:48;2.50;;;2.30;;
12631;SDS011;6381;45.748;12.106;2022-08-03T10:53:32;4.95;;;2.38;;
12631;SDS011;6381;45.748;12.106;2022-08-03T10:56:02;2.95;;;2.33;;
12631;SDS011;6381;45.748;12.106;2022-08-03T10:59:08;3.17;;;2.42;;
12631;SDS011;6381;45.748;12.106;2022-08-03T11:01:51;2.40;;;2.20;;
12631;SDS011;6381;45.748;12.106;2022-08-03T11:04:27;2.30;;;2.10;;
12631;SDS011;6381;45.748;12.106;2022-08-03T11:09:50;2.17;;;2.08;;
12631;SDS011;6381;45.748;12.106;2022-08-03T11:12:23;3.22;;;2.30;;
12631;SDS011;6381;45.748;12.106;2022-08-03T11:31:48;2.30;;;2.10;;
12631;SDS011;6381;45.748;12.106;2022-08-03T11:34:17;2.00;;;1.90;;
12631;SDS011;6381;45.748;12.106;2022-08-03T11:39:54;4.53;;;2.35;;
12631;SDS011;6381;45.748;12.106;2022-08-03T11:42:38;7.57;;;2.40;;
12631;SDS011;6381;45.748;12.106;2022-08-03T11:45:13;3.42;;;2.22;;
12631;SDS011;6381;45.748;12.106;2022-08-03T11:47:46;3.95;;;2.20;;
12631;SDS011;6381;45.748;12.106;2022-08-03T11:50:19;3.97;;;1.92;;
12631;SDS011;6381;45.748;12.106;2022-08-03T11:52:50;2.42;;;2.03;;
12631;SDS011;6381;45.748;12.106;2022-08-03T11:55:19;2.10;;;1.88;;
12631;SDS011;6381;45.748;12.106;2022-08-03T11:57:49;1.77;;;1.67;;
12631;SDS011;6381;45.748;12.106;2022-08-03T12:00:38;3.88;;;2.10;;
12631;SDS011;6381;45.748;12.106;2022-08-03T12:03:08;2.53;;;1.80;;
12631;SDS011;6381;45.748;12.106;2022-08-03T12:05:46;2.30;;;1.70;;
12631;SDS011;6381;45.748;12.106;2022-08-03T12:08:27;3.47;;;2.10;;
12631;SDS011;6381;45.748;12.106;2022-08-03T12:10:59;2.28;;;1.80;;
12631;SDS011;6381;45.748;12.106;2022-08-03T12:13:39;2.42;;;2.22;;
12631;SDS011;6381;45.748;12.106;2022-08-03T12:16:29;2.20;;;1.90;;
12631;SDS011;6381;45.748;12.106;2022-08-03T12:19:00;1.98;;;1.77;;
12631;SDS011;6381;45.748;12.106;2022-08-03T12:21:29;1.92;;;1.77;;
12631;SDS011;6381;45.748;12.106;2022-08-03T12:23:59;2.63;;;2.00;;
12631;SDS011;6381;45.748;12.106;2022-08-03T12:26:29;2.67;;;2.03;;
12631;SDS011;6381;45.748;12.106;2022-08-03T12:29:24;3.10;;;1.80;;
12631;SDS011;6381;45.748;12.106;2022-08-03T12:31:53;1.95;;;1.80;;
12631;SDS011;6381;45.748;12.106;2022-08-03T12:34:23;2.05;;;1.70;;
12631;SDS011;6381;45.748;12.106;2022-08-03T12:37:13;2.38;;;2.05;;
12631;SDS011;6381;45.748;12.106;2022-08-03T12:39:48;2.17;;;1.90;;
12631;SDS011;6381;45.748;12.106;2022-08-03T12:42:30;2.20;;;1.90;;
12631;SDS011;6381;45.748;12.106;2022-08-03T12:47:51;1.80;;;1.70;;
12631;SDS011;6381;45.748;12.106;2022-08-03T12:50:29;2.75;;;1.88;;
12631;SDS011;6381;45.748;12.106;2022-08-03T12:52:59;1.90;;;1.80;;
12631;SDS011;6381;45.748;12.106;2022-08-03T12:55:30;3.05;;;1.80;;
12631;SDS011;6381;45.748;12.106;2022-08-03T12:58:29;2.42;;;1.92;;
12631;SDS011;6381;45.748;12.106;2022-08-03T13:01:01;2.10;;;1.90;;
12631;SDS011;6381;45.748;12.106;2022-08-03T13:03:39;2.10;;;1.90;;
12631;SDS011;6381;45.748;12.106;2022-08-03T13:06:17;1.98;;;1.83;;
12631;SDS011;6381;45.748;12.106;2022-08-03T13:08:48;2.08;;;1.77;;
12631;SDS011;6381;45.748;12.106;2022-08-03T13:11:28;2.40;;;2.05;;
12631;SDS011;6381;45.748;12.106;2022-08-03T13:14:18;1.85;;;1.75;;
12631;SDS011;6381;45.748;12.106;2022-08-03T13:16:53;2.08;;;1.88;;
12631;SDS011;6381;45.748;12.106;2022-08-03T13:19:22;3.90;;;1.90;;
12631;SDS011;6381;45.748;12.106;2022-08-03T13:21:53;5.05;;;1.90;;
12631;SDS011;6381;45.748;12.106;2022-08-03T13:24:33;2.10;;;1.83;;
12631;SDS011;6381;45.748;12.106;2022-08-03T13:27:04;2.33;;;1.98;;
12631;SDS011;6381;45.748;12.106;2022-08-03T13:29:59;2.53;;;2.08;;
12631;SDS011;6381;45.748;12.106;2022-08-03T13:33:01;2.25;;;1.90;;
12631;SDS011;6381;45.748;12.106;2022-08-03T13:35:56;2.05;;;1.80;;
12631;SDS011;6381;45.748;12.106;2022-08-03T13:38:27;2.28;;;1.60;;
12631;SDS011;6381;45.748;12.106;2022-08-03T13:41:00;2.97;;;1.83;;
12631;SDS011;6381;45.748;12.106;2022-08-03T13:43:30;2.58;;;1.75;;
12631;SDS011;6381;45.748;12.106;2022-08-03T13:45:59;2.35;;;1.73;;
12631;SDS011;6381;45.748;12.106;2022-08-03T13:48:27;2.10;;;1.60;;
12631;SDS011;6381;45.748;12.106;2022-08-03T13:51:03;2.42;;;1.80;;
12631;SDS011;6381;45.748;12.106;2022-08-03T13:53:49;2.25;;;1.92;;
12631;SDS011;6381;45.748;12.106;2022-08-03T13:56:18;2.80;;;2.05;;
12631;SDS011;6381;45.748;12.106;2022-08-03T13:58:47;2.08;;;1.75;;
12631;SDS011;6381;45.748;12.106;2022-08-03T14:01:16;2.15;;;1.67;;
12631;SDS011;6381;45.748;12.106;2022-08-03T14:04:05;5.95;;;1.80;;
12631;SDS011;6381;45.748;12.106;2022-08-03T14:06:47;2.10;;;1.90;;
12631;SDS011;6381;45.748;12.106;2022-08-03T14:09:17;2.42;;;1.80;;
12631;SDS011;6381;45.748;12.106;2022-08-03T14:11:46;2.65;;;2.15;;
12631;SDS011;6381;45.748;12.106;2022-08-03T14:14:34;5.32;;;2.20;;
12631;SDS011;6381;45.748;12.106;2022-08-03T14:17:03;3.33;;;2.00;;
12631;SDS011;6381;45.748;12.106;2022-08-03T14:19:33;1.92;;;1.73;;
12631;SDS011;6381;45.748;12.106;2022-08-03T14:22:19;3.03;;;2.13;;
12631;SDS011;6381;45.748;12.106;2022-08-03T14:24:51;2.83;;;2.00;;
12631;SDS011;6381;45.748;12.106;2022-08-03T14:27:21;2.22;;;1.85;;
12631;SDS011;6381;45.748;12.106;2022-08-03T14:29:51;4.40;;;1.98;;
12631;SDS011;6381;45.748;12.106;2022-08-03T14:32:22;3.45;;;2.08;;
12631;SDS011;6381;45.748;12.106;2022-08-03T14:34:50;2.47;;;1.92;;
12631;SDS011;6381;45.748;12.106;2022-08-03T14:37:19;3.45;;;2.10;;
12631;SDS011;6381;45.748;12.106;2022-08-03T14:39:48;3.60;;;2.50;;
12631;SDS011;6381;45.748;12.106;2022-08-03T14:42:27;2.83;;;2.20;;
12631;SDS011;6381;45.748;12.106;2022-08-03T14:44:59;3.08;;;1.88;;
12631;SDS011;6381;45.748;12.106;2022-08-03T14:47:34;2.10;;;1.90;;
12631;SDS011;6381;45.748;12.106;2022-08-03T14:50:23;4.57;;;2.20;;
12631;SDS011;6381;45.748;12.106;2022-08-03T14:53:08;3.47;;;1.98;;
12631;SDS011;6381;45.748;12.106;2022-08-03T14:55:37;3.72;;;2.10;;
12631;SDS011;6381;45.748;12.106;2022-08-03T14:58:17;1.92;;;1.80;;
12631;SDS011;6381;45.748;12.106;2022-08-03T15:00:47;5.55;;;1.90;;
12631;SDS011;6381;45.748;12.106;2022-08-03T15:03:17;2.50;;;1.95;;
12631;SDS011;6381;45.748;12.106;2022-08-03T15:05:50;2.35;;;1.88;;
12631;SDS011;6381;45.748;12.106;2022-08-03T15:08:20;4.40;;;1.98;;
12631;SDS011;6381;45.748;12.106;2022-08-03T15:10:49;3.45;;;2.20;;
12631;SDS011;6381;45.748;12.106;2022-08-03T15:13:19;3.42;;;2.10;;
12631;SDS011;6381;45.748;12.106;2022-08-03T15:15:49;4.55;;;1.88;;
12631;SDS011;6381;45.748;12.106;2022-08-03T15:18:18;2.45;;;1.90;;
12631;SDS011;6381;45.748;12.106;2022-08-03T15:20:47;3.67;;;2.00;;
12631;SDS011;6381;45.748;12.106;2022-08-03T15:23:16;2.13;;;1.73;;
12631;SDS011;6381;45.748;12.106;2022-08-03T15:25:45;2.58;;;1.73;;
12631;SDS011;6381;45.748;12.106;2022-08-03T15:28:37;1.90;;;1.67;;
12631;SDS011;6381;45.748;12.106;2022-08-03T15:31:10;2.92;;;2.00;;
12631;SDS011;6381;45.748;12.106;2022-08-03T15:33:45;2.35;;;1.60;;
12631;SDS011;6381;45.748;12.106;2022-08-03T15:36:19;1.80;;;1.70;;
12631;SDS011;6381;45.748;12.106;2022-08-03T15:38:48;3.63;;;1.75;;
12631;SDS011;6381;45.748;12.106;2022-08-03T15:41:18;2.67;;;1.90;;
12631;SDS011;6381;45.748;12.106;2022-08-03T15:43:48;2.05;;;1.65;;
12631;SDS011;6381;45.748;12.106;2022-08-03T15:46:18;2.85;;;1.60;;
12631;SDS011;6381;45.748;12.106;2022-08-03T15:48:56;3.20;;;1.80;;
12631;SDS011;6381;45.748;12.106;2022-08-03T15:51:25;1.80;;;1.70;;
12631;SDS011;6381;45.748;12.106;2022-08-03T15:53:55;1.70;;;1.60;;
12631;SDS011;6381;45.748;12.106;2022-08-03T15:56:24;2.67;;;1.75;;
12631;SDS011;6381;45.748;12.106;2022-08-03T15:58:54;1.88;;;1.67;;